createdAt,value
2023-02-17T00:03:27.035Z,101493.47
2023-02-17T00:06:30.901Z,101506.69
2023-02-17T00:09:55.360Z,101505.44
2023-02-17T00:13:17.947Z,101498.94
2023-02-17T00:16:33.970Z,101498.06
2023-02-17T00:19:38.350Z,101497.06
2023-02-17T00:23:02.994Z,101482.69
2023-02-17T00:26:06.876Z,101502.09
2023-02-17T00:29:25.192Z,101501.25
2023-02-17T00:32:45.308Z,101492.72
2023-02-17T00:36:00.009Z,101499.41
2023-02-17T00:39:02.089Z,101493.12
2023-02-17T00:42:16.989Z,101475.34
2023-02-17T00:45:18.725Z,101497.25
2023-02-17T00:48:33.041Z,101493.84
2023-02-17T00:51:34.849Z,101481.44
2023-02-17T00:54:49.977Z,101498.16
2023-02-17T00:57:51.977Z,101498.94
2023-02-17T01:01:07.957Z,101501.66
2023-02-17T01:04:10.134Z,101496.44
2023-02-17T01:07:24.973Z,101493.78
2023-02-17T01:10:42.488Z,101462.97
2023-02-17T01:14:11.957Z,101479.88
2023-02-17T01:17:19.968Z,101476.41
2023-02-17T01:20:40.786Z,101484.31
2023-02-17T01:24:03.013Z,101486.97
2023-02-17T01:27:37.385Z,101491.41
2023-02-17T01:31:05.136Z,101470.28
2023-02-17T01:34:13.194Z,101483.59
2023-02-17T01:37:27.973Z,101468.03
2023-02-17T01:40:30.001Z,101469.97
2023-02-17T01:43:46.228Z,101468.13
2023-02-17T01:46:50.042Z,101461.00
2023-02-17T01:50:19.236Z,101463.50
2023-02-17T01:53:52.969Z,101461.63
2023-02-17T01:57:02.152Z,101418.88
2023-02-17T02:00:13.253Z,101454.03
2023-02-17T02:03:24.942Z,101463.06
2023-02-17T02:06:41.985Z,101459.59
2023-02-17T02:10:20.926Z,101434.16
2023-02-17T02:14:18.073Z,101458.69
2023-02-17T02:17:51.023Z,101468.97
2023-02-17T02:21:13.147Z,101412.31
2023-02-17T02:24:46.009Z,101453.66
2023-02-17T02:28:27.035Z,101441.94
2023-02-17T02:32:03.082Z,101432.25
2023-02-17T02:35:14.890Z,101449.03
2023-02-17T02:38:43.966Z,101410.06
2023-02-17T02:42:03.038Z,101422.56
2023-02-17T02:45:19.014Z,101423.37
2023-02-17T02:48:27.304Z,101429.53
2023-02-17T02:51:50.537Z,101432.09
2023-02-17T02:55:24.002Z,101435.47
2023-02-17T02:59:10.057Z,101382.44
2023-02-17T03:02:31.905Z,101438.28
2023-02-17T03:06:08.386Z,101436.94
2023-02-17T03:13:09.018Z,101428.38
2023-02-17T03:16:10.688Z,101429.16
2023-02-17T03:23:26.015Z,101424.31
2023-02-17T03:26:27.791Z,101448.66
2023-02-17T03:33:41.102Z,101446.75
2023-02-17T03:36:49.700Z,101435.28
2023-02-17T03:40:14.069Z,101449.75
2023-02-17T03:43:22.677Z,101433.72
2023-02-17T03:46:31.041Z,101459.19
2023-02-17T03:49:40.012Z,101452.97
2023-02-17T03:52:48.992Z,101458.38
2023-02-17T03:55:57.500Z,101461.78
2023-02-17T03:59:06.012Z,101465.34
2023-02-17T04:02:15.197Z,101451.38
2023-02-17T04:05:23.082Z,101448.81
2023-02-17T04:08:39.012Z,101429.22
2023-02-17T04:11:53.994Z,101449.53
2023-02-17T04:15:08.989Z,101425.66
2023-02-17T04:18:18.953Z,101429.22
2023-02-17T04:21:27.020Z,101448.81
2023-02-17T04:24:36.987Z,101442.25
2023-02-17T04:27:45.196Z,101449.22
2023-02-17T04:31:18.085Z,101450.09
2023-02-17T04:34:19.908Z,101452.69
2023-02-17T04:37:35.061Z,101436.22
2023-02-17T04:40:46.360Z,101443.31
2023-02-17T04:43:55.085Z,101441.47
2023-02-17T04:47:10.046Z,101435.38
2023-02-17T04:50:17.719Z,101439.78
2023-02-17T04:53:33.008Z,101420.69
2023-02-17T04:56:41.029Z,101437.88
2023-02-17T04:59:58.041Z,101430.00
2023-02-17T05:03:29.029Z,101434.25
2023-02-17T05:06:44.034Z,101340.31
2023-02-17T05:09:59.140Z,101433.75
2023-02-17T05:13:07.031Z,101438.06
2023-02-17T05:16:22.039Z,101439.00
2023-02-17T05:19:38.129Z,101444.31
2023-02-17T05:23:02.127Z,101425.16
2023-02-17T05:26:10.025Z,101436.22
2023-02-17T05:29:19.285Z,101399.34
2023-02-17T05:32:35.021Z,101426.84
2023-02-17T05:35:43.113Z,101439.03
2023-02-17T05:50:18.053Z,101444.56
2023-02-17T05:53:34.054Z,101446.47
2023-02-17T05:57:20.014Z,101399.69
2023-02-17T06:00:36.686Z,101452.91
2023-02-17T06:03:47.417Z,101446.97
2023-02-17T06:06:55.544Z,101312.59
2023-02-17T06:10:20.575Z,101437.19
2023-02-17T06:13:36.055Z,101414.13
2023-02-17T06:20:23.073Z,101433.56
2023-02-17T06:23:31.573Z,101424.75
2023-02-17T06:26:40.033Z,101433.56
2023-02-17T06:29:51.872Z,101456.59
2023-02-17T06:33:20.025Z,101443.56
2023-02-17T06:36:35.005Z,101473.53
2023-02-17T06:39:39.244Z,101458.62
2023-02-17T06:43:03.057Z,101457.84
2023-02-17T06:50:45.087Z,101476.75
2023-02-17T06:53:54.165Z,101456.03
2023-02-17T06:57:09.009Z,101472.88
2023-02-17T07:00:44.105Z,101449.31
2023-02-17T07:04:01.014Z,101384.78
2023-02-17T07:07:03.516Z,101460.16
2023-02-17T07:10:41.145Z,101448.78
2023-02-17T07:13:43.597Z,101372.00
2023-02-17T07:16:58.072Z,101455.16
2023-02-17T07:20:20.400Z,101451.69
2023-02-17T07:24:09.017Z,101455.28
2023-02-17T07:27:11.068Z,101452.69
2023-02-17T07:30:48.763Z,101454.66
2023-02-17T07:34:24.030Z,101453.84
2023-02-17T07:37:25.709Z,101362.87
2023-02-17T07:44:13.241Z,101438.16
2023-02-17T07:51:46.154Z,101447.97
2023-02-17T07:55:01.068Z,101426.87
2023-02-17T08:02:36.213Z,101421.69
2023-02-17T08:05:44.824Z,101381.16
2023-02-17T08:08:54.054Z,101300.00
2023-02-17T08:16:30.203Z,101442.06
2023-02-17T08:23:14.752Z,101427.06
2023-02-17T08:26:27.066Z,101436.75
2023-02-17T08:29:37.551Z,101441.00
2023-02-17T08:32:46.046Z,101444.28
2023-02-17T08:35:55.138Z,101325.78
2023-02-17T08:39:16.170Z,101381.53
2023-02-17T08:42:20.773Z,101433.97
2023-02-17T08:45:42.139Z,101431.69
2023-02-17T08:49:22.234Z,101444.69
2023-02-17T08:52:34.268Z,101452.75
2023-02-17T09:00:28.194Z,101431.69
2023-02-17T09:07:42.119Z,101439.53
2023-02-17T09:10:58.166Z,101421.81
2023-02-17T09:18:05.288Z,101448.59
2023-02-17T09:21:24.446Z,101322.47
2023-02-17T09:24:47.266Z,101435.25
2023-02-17T09:27:55.792Z,101432.03
2023-02-17T09:35:01.396Z,101437.94
2023-02-17T09:38:33.073Z,101399.25
2023-02-17T09:53:58.329Z,101428.88
2023-02-17T09:57:31.779Z,101438.03
2023-02-17T10:04:27.727Z,101418.47
2023-02-17T10:07:48.122Z,101415.34
2023-02-17T10:11:18.750Z,101405.94
2023-02-17T10:19:05.640Z,101406.16
2023-02-17T10:22:33.613Z,101390.88
2023-02-17T10:30:04.239Z,101385.28
2023-02-17T10:38:02.133Z,101372.84
2023-02-17T10:41:24.032Z,101362.84
2023-02-17T10:44:44.143Z,101358.69
2023-02-17T10:47:48.098Z,101264.56
2023-02-17T10:51:07.161Z,101329.88
2023-02-17T10:59:00.198Z,101330.00
2023-02-17T11:02:34.647Z,101352.22
2023-02-17T11:06:40.290Z,101345.91
2023-02-17T11:13:36.672Z,101328.28
2023-02-17T11:16:52.143Z,101313.50
2023-02-17T11:20:12.669Z,101276.50
2023-02-17T11:27:18.156Z,101321.87
2023-02-17T11:34:02.222Z,101312.28
2023-02-17T11:37:22.225Z,101316.50
2023-02-17T11:41:15.275Z,101310.06
2023-02-17T11:44:42.432Z,101208.19
2023-02-17T11:48:31.064Z,101298.84
2023-02-17T11:52:03.594Z,101255.56
2023-02-17T11:55:45.600Z,101294.75
2023-02-17T11:59:20.434Z,101290.38
2023-02-17T12:02:51.244Z,101273.47
2023-02-17T12:06:21.165Z,101268.91
2023-02-17T12:09:55.245Z,101274.50
2023-02-17T12:13:36.352Z,101261.63
2023-02-17T12:21:15.281Z,101265.00
2023-02-17T12:48:11.347Z,101218.41
2023-02-17T12:59:59.507Z,101239.81
2023-02-17T13:03:29.848Z,101191.50
2023-02-17T13:07:35.140Z,101212.44
2023-02-17T13:11:02.776Z,101061.31
2023-02-17T13:14:20.168Z,101218.44
2023-02-17T13:17:47.484Z,101219.41
2023-02-17T13:33:11.624Z,101238.41
2023-02-17T13:36:32.471Z,101241.97
2023-02-17T13:39:50.898Z,101217.16
2023-02-17T13:43:10.821Z,101224.16
2023-02-17T13:46:28.000Z,101202.06
2023-02-17T14:05:50.258Z,101186.84
2023-02-17T14:09:36.196Z,101163.16
2023-02-17T14:12:40.857Z,101180.00
2023-02-17T14:16:01.187Z,101171.19
2023-02-17T14:19:22.393Z,101169.59
2023-02-17T14:35:18.298Z,101165.06
2023-02-17T14:39:13.441Z,101170.47
2023-02-17T14:46:25.259Z,101171.63
2023-02-17T14:49:33.172Z,101143.56
2023-02-17T15:00:43.219Z,101169.88
2023-02-17T15:03:58.555Z,101138.06
2023-02-17T15:11:01.224Z,101131.53
2023-02-17T15:25:39.477Z,101104.31
2023-02-17T15:40:11.401Z,101106.03
2023-02-17T15:59:19.427Z,101137.41
2023-02-17T16:02:32.185Z,101105.91
2023-02-17T16:09:17.234Z,101127.88
2023-02-17T16:21:19.896Z,101112.78
2023-02-17T16:24:30.857Z,101040.72
2023-02-17T16:27:39.325Z,101094.41
2023-02-17T16:30:50.781Z,101097.06
2023-02-17T16:41:59.218Z,101102.41
2023-02-17T16:45:22.260Z,101085.66
2023-02-17T16:48:37.510Z,101093.75
2023-02-17T16:51:46.296Z,101077.19
2023-02-17T16:55:25.220Z,101082.47
2023-02-17T16:58:42.219Z,101088.69
2023-02-17T17:05:38.193Z,101052.00
2023-02-17T17:08:43.538Z,101078.47
2023-02-17T17:11:59.315Z,101071.47
2023-02-17T17:15:38.305Z,101064.41
2023-02-17T17:18:57.850Z,100848.62
2023-02-17T17:25:38.563Z,101061.97
2023-02-17T17:28:50.857Z,100916.28
2023-02-17T17:32:22.797Z,101035.78
2023-02-17T17:39:04.433Z,100871.78
2023-02-17T17:42:58.023Z,100926.22
2023-02-17T17:50:23.615Z,101056.34
2023-02-17T17:53:50.230Z,101054.53
2023-02-17T17:57:25.983Z,101030.69
2023-02-17T18:00:36.278Z,101050.00
2023-02-17T18:16:39.286Z,100951.53
2023-02-17T18:19:59.491Z,101032.12
2023-02-17T18:34:50.773Z,100884.50
2023-02-17T18:42:02.289Z,101029.81
2023-02-17T18:45:11.222Z,101027.00
2023-02-17T18:48:26.801Z,101020.81
2023-02-17T18:59:29.254Z,100995.19
2023-02-17T19:03:12.499Z,100991.75
2023-02-17T19:06:37.717Z,100853.16
2023-02-17T19:09:45.898Z,100979.44
2023-02-17T19:13:16.894Z,100997.03
2023-02-17T19:20:12.342Z,100854.91
2023-02-17T19:23:43.275Z,100968.97
2023-02-17T19:31:43.609Z,100996.28
2023-02-17T19:35:55.628Z,100968.16
2023-02-17T19:47:17.354Z,100994.69
2023-02-17T20:07:06.246Z,100751.41
2023-02-17T20:18:25.217Z,100911.94
2023-02-17T20:22:08.421Z,100902.31
2023-02-17T20:29:45.353Z,100866.28
2023-02-17T20:33:48.778Z,100881.28
2023-02-17T20:45:08.918Z,100858.72
2023-02-17T20:48:13.305Z,100848.94
2023-02-17T20:52:06.411Z,100848.13
2023-02-17T20:55:58.369Z,100857.03
2023-02-17T21:02:50.647Z,100839.00
2023-02-17T21:06:28.312Z,100832.81
2023-02-17T21:16:46.693Z,100850.28
2023-02-17T21:20:40.654Z,100859.94
2023-02-17T21:35:27.317Z,100863.75
2023-02-17T21:39:29.390Z,100859.31
2023-02-17T21:42:52.290Z,100870.72
2023-02-17T21:46:01.456Z,100847.06
2023-02-17T21:49:24.495Z,100885.75
2023-02-17T22:00:30.560Z,100895.88
2023-02-17T22:04:04.291Z,100895.75
2023-02-17T22:07:15.301Z,100908.31
2023-02-17T22:10:43.933Z,100893.22
2023-02-17T22:14:22.325Z,100878.25
2023-02-17T22:17:31.296Z,100870.13
2023-02-17T22:20:45.962Z,100896.59
2023-02-17T22:23:54.278Z,100884.63
2023-02-17T22:27:03.014Z,100881.59
2023-02-17T22:33:59.359Z,100853.13
2023-02-17T22:37:03.589Z,100885.31
2023-02-17T22:40:24.692Z,100879.34
2023-02-17T22:43:34.270Z,100882.13
2023-02-17T22:46:43.075Z,100861.38
2023-02-17T22:50:09.363Z,100888.53
2023-02-17T22:57:15.087Z,100882.34
2023-02-17T23:00:51.387Z,100897.97
2023-02-17T23:04:07.383Z,100875.25
2023-02-17T23:07:16.058Z,100891.88
2023-02-17T23:10:25.427Z,100779.09
2023-02-17T23:13:42.920Z,100887.38
2023-02-17T23:16:51.512Z,100883.81
2023-02-17T23:20:22.200Z,100867.97
2023-02-17T23:23:24.677Z,100870.91
2023-02-17T23:26:39.338Z,100798.88
2023-02-17T23:29:44.483Z,100866.34
2023-02-17T23:33:24.325Z,100846.66
2023-02-17T23:36:39.292Z,100854.63
2023-02-17T23:39:48.536Z,100851.47
2023-02-17T23:43:43.045Z,100843.87
2023-02-17T23:46:50.845Z,100847.31
2023-02-17T23:54:05.285Z,100832.38
2023-02-17T23:57:14.079Z,100842.88
